createdAt,value
2023-11-18T00:00:12.239Z,60.00
2023-11-18T00:02:40.025Z,60.18
2023-11-18T00:05:08.807Z,60.19
2023-11-18T00:07:36.075Z,60.31
2023-11-18T00:10:03.752Z,60.34
2023-11-18T00:12:30.552Z,60.43
2023-11-18T00:14:57.777Z,60.55
2023-11-18T00:17:24.825Z,60.38
2023-11-18T00:19:51.985Z,60.66
2023-11-18T00:22:19.334Z,60.41
2023-11-18T00:24:46.416Z,60.38
2023-11-18T00:27:16.121Z,60.29
2023-11-18T00:29:44.916Z,60.41
2023-11-18T00:32:12.854Z,60.51
2023-11-18T00:34:40.211Z,60.23
2023-11-18T00:37:08.379Z,60.52
2023-11-18T00:39:35.676Z,60.35
2023-11-18T00:42:02.924Z,60.45
2023-11-18T00:44:30.187Z,60.54
2023-11-18T00:49:27.274Z,60.30
2023-11-18T00:51:54.466Z,60.31
2023-11-18T00:54:21.313Z,60.33
2023-11-18T00:56:48.370Z,60.19
2023-11-18T00:59:15.491Z,60.45
2023-11-18T01:01:43.251Z,60.73
2023-11-18T01:04:10.634Z,60.64
2023-11-18T01:06:37.593Z,60.74
2023-11-18T01:09:05.039Z,60.70
2023-11-18T01:11:32.132Z,60.71
2023-11-18T01:13:59.524Z,60.72
2023-11-18T01:16:26.703Z,61.02
2023-11-18T01:18:53.875Z,60.98
2023-11-18T01:21:21.313Z,61.15
2023-11-18T01:23:50.083Z,61.04
2023-11-18T01:26:17.496Z,61.37
2023-11-18T01:28:46.221Z,61.28
2023-11-18T01:31:13.346Z,61.39
2023-11-18T01:33:41.600Z,61.33
2023-11-18T01:36:09.739Z,61.40
2023-11-18T01:38:39.824Z,61.48
2023-11-18T01:41:07.902Z,61.36
2023-11-18T01:43:34.959Z,61.39
2023-11-18T01:46:11.564Z,61.32
2023-11-18T01:48:39.293Z,61.46
2023-11-18T01:51:08.652Z,61.49
2023-11-18T01:53:37.804Z,61.51
2023-11-18T01:56:06.925Z,61.38
2023-11-18T01:58:37.013Z,61.41
2023-11-18T02:01:09.320Z,61.35
2023-11-18T02:03:37.254Z,61.35
2023-11-18T02:06:06.399Z,61.41
2023-11-18T02:08:36.299Z,61.50
2023-11-18T02:11:20.114Z,61.20
2023-11-18T02:13:51.421Z,61.12
2023-11-18T02:16:20.734Z,60.83
2023-11-18T02:18:50.424Z,60.80
2023-11-18T02:21:17.862Z,60.61
2023-11-18T02:23:45.092Z,60.76
2023-11-18T02:26:12.254Z,60.71
2023-11-18T02:28:39.899Z,60.74
2023-11-18T02:31:16.724Z,60.87
2023-11-18T02:33:57.497Z,60.91
2023-11-18T02:36:43.023Z,60.75
2023-11-18T02:39:18.624Z,60.93
2023-11-18T02:41:49.449Z,60.70
2023-11-18T02:44:19.486Z,60.91
2023-11-18T02:46:46.777Z,61.02
2023-11-18T02:49:13.989Z,60.95
2023-11-18T02:51:41.190Z,61.03
2023-11-18T02:54:11.830Z,61.01
2023-11-18T02:56:39.344Z,61.14
2023-11-18T02:59:06.844Z,61.09
2023-11-18T03:01:35.122Z,61.16
2023-11-18T03:04:03.490Z,60.93
2023-11-18T03:06:30.711Z,61.10
2023-11-18T03:08:57.875Z,60.83
2023-11-18T03:11:26.344Z,60.81
2023-11-18T03:13:53.254Z,61.11
2023-11-18T03:16:20.512Z,61.19
2023-11-18T03:18:47.686Z,61.23
2023-11-18T03:21:15.258Z,60.90
2023-11-18T03:23:43.173Z,61.07
2023-11-18T03:26:11.522Z,61.25
2023-11-18T03:28:39.538Z,61.22
2023-11-18T03:31:07.555Z,61.17
2023-11-18T03:33:34.881Z,61.13
2023-11-18T03:36:01.795Z,61.26
2023-11-18T03:38:29.932Z,61.33
2023-11-18T03:40:58.177Z,61.25
2023-11-18T03:43:25.354Z,61.32
2023-11-18T03:45:57.968Z,61.35
2023-11-18T03:48:25.501Z,61.29
2023-11-18T03:50:52.707Z,61.34
2023-11-18T03:53:19.805Z,61.48
2023-11-18T03:55:46.632Z,61.62
2023-11-18T03:58:13.758Z,61.46
2023-11-18T04:00:40.813Z,61.41
2023-11-18T04:03:08.732Z,61.44
2023-11-18T04:05:36.169Z,61.65
2023-11-18T04:08:03.406Z,61.36
2023-11-18T04:10:30.608Z,61.32
2023-11-18T04:12:58.242Z,61.51
2023-11-18T04:15:25.460Z,61.32
2023-11-18T04:17:53.570Z,61.08
2023-11-18T04:20:20.589Z,61.15
2023-11-18T04:22:47.743Z,61.03
2023-11-18T04:25:14.574Z,60.83
2023-11-18T04:27:45.366Z,60.98
2023-11-18T04:30:14.764Z,60.98
2023-11-18T04:32:43.838Z,61.10
2023-11-18T04:35:13.143Z,61.22
2023-11-18T04:37:44.597Z,61.22
2023-11-18T04:40:12.628Z,61.00
2023-11-18T04:42:40.900Z,61.03
2023-11-18T04:45:10.771Z,61.02
2023-11-18T04:47:39.486Z,61.14
2023-11-18T04:50:09.610Z,60.98
2023-11-18T04:52:37.887Z,61.14
2023-11-18T04:55:07.373Z,60.91
2023-11-18T04:57:34.944Z,61.12
2023-11-18T05:00:11.697Z,61.01
2023-11-18T05:02:42.888Z,61.18
2023-11-18T05:05:10.632Z,60.92
2023-11-18T05:07:37.731Z,60.94
2023-11-18T05:10:05.276Z,61.00
2023-11-18T05:12:34.093Z,60.97
2023-11-18T05:15:01.943Z,60.86
2023-11-18T05:17:28.852Z,60.95
2023-11-18T05:19:56.079Z,60.82
2023-11-18T05:22:23.229Z,60.80
2023-11-18T05:24:50.009Z,60.81
2023-11-18T05:27:18.720Z,60.89
2023-11-18T05:29:55.680Z,60.82
2023-11-18T05:32:24.167Z,60.63
2023-11-18T05:34:55.010Z,60.70
2023-11-18T05:37:23.973Z,60.80
2023-11-18T05:40:00.211Z,60.63
2023-11-18T05:42:29.319Z,60.39
2023-11-18T05:45:00.459Z,60.64
2023-11-18T05:47:28.137Z,60.47
2023-11-18T05:49:55.755Z,60.40
2023-11-18T05:52:23.877Z,60.35
2023-11-18T05:54:51.193Z,60.27
2023-11-18T05:57:19.342Z,60.15
2023-11-18T05:59:49.834Z,60.03
2023-11-18T06:02:20.506Z,60.28
2023-11-18T06:04:48.400Z,60.23
2023-11-18T06:07:15.953Z,60.08
2023-11-18T06:09:46.901Z,60.09
2023-11-18T06:12:13.982Z,60.20
2023-11-18T06:14:43.147Z,60.14
2023-11-18T06:17:10.099Z,60.23
2023-11-18T06:19:37.332Z,60.05
2023-11-18T06:22:04.520Z,60.17
2023-11-18T06:24:31.314Z,60.28
2023-11-18T06:27:00.821Z,60.10
2023-11-18T06:29:27.810Z,59.99
2023-11-18T06:31:54.572Z,60.05
2023-11-18T06:34:22.047Z,60.20
2023-11-18T06:36:49.080Z,60.16
2023-11-18T06:39:17.596Z,59.91
2023-11-18T06:41:49.597Z,60.05
2023-11-18T06:44:19.492Z,60.05
2023-11-18T06:46:46.668Z,59.94
2023-11-18T06:49:16.728Z,60.01
2023-11-18T06:51:44.254Z,60.22
2023-11-18T06:54:12.262Z,60.12
2023-11-18T06:56:44.248Z,60.16
2023-11-18T06:59:17.087Z,60.01
2023-11-18T07:01:46.065Z,60.04
2023-11-18T07:04:15.922Z,60.09
2023-11-18T07:06:44.664Z,60.11
2023-11-18T07:09:18.842Z,59.97
2023-11-18T07:11:48.341Z,59.99
2023-11-18T07:14:16.401Z,59.97
2023-11-18T07:16:44.376Z,59.86
2023-11-18T07:19:18.733Z,59.79
2023-11-18T07:21:46.300Z,59.79
2023-11-18T07:24:13.525Z,59.80
2023-11-18T07:26:40.640Z,59.79
2023-11-18T07:29:10.588Z,59.83
2023-11-18T07:31:37.527Z,59.65
2023-11-18T07:34:06.876Z,59.59
2023-11-18T07:36:34.694Z,59.50
2023-11-18T07:39:02.984Z,59.53
2023-11-18T07:41:33.835Z,59.53
2023-11-18T07:44:02.237Z,59.49
2023-11-18T07:46:32.402Z,59.44
2023-11-18T07:48:59.927Z,59.22
2023-11-18T07:51:26.736Z,59.02
2023-11-18T07:53:56.680Z,58.92
2023-11-18T07:56:24.450Z,58.86
2023-11-18T07:58:53.312Z,58.82
2023-11-18T08:01:22.625Z,58.73
2023-11-18T08:03:52.542Z,58.70
2023-11-18T08:06:19.939Z,58.66
2023-11-18T08:08:49.258Z,58.59
2023-11-18T08:11:16.772Z,58.49
2023-11-18T08:13:45.136Z,58.44
2023-11-18T08:16:14.114Z,58.38
2023-11-18T08:18:41.025Z,58.40
2023-11-18T08:21:08.693Z,58.47
2023-11-18T08:23:35.661Z,58.49
2023-11-18T08:26:03.656Z,58.50
2023-11-18T08:28:30.728Z,58.47
2023-11-18T08:30:57.569Z,58.41
2023-11-18T08:33:27.574Z,58.33
2023-11-18T08:35:54.838Z,58.33
2023-11-18T08:38:22.038Z,58.13
2023-11-18T08:40:50.241Z,57.99
2023-11-18T08:43:18.032Z,57.81
2023-11-18T08:45:46.330Z,57.65
2023-11-18T08:48:13.513Z,57.56
2023-11-18T08:50:41.477Z,57.47
2023-11-18T08:53:11.472Z,57.42
2023-11-18T08:55:57.670Z,57.36
2023-11-18T08:58:29.286Z,57.34
2023-11-18T09:01:07.658Z,57.33
2023-11-18T09:03:38.375Z,57.30
2023-11-18T09:06:18.689Z,57.25
2023-11-18T09:08:47.307Z,57.21
2023-11-18T09:11:16.206Z,57.20
2023-11-18T09:13:46.192Z,57.07
2023-11-18T09:16:13.514Z,56.99
2023-11-18T09:18:43.677Z,57.02
2023-11-18T09:21:16.444Z,57.00
2023-11-18T09:23:46.428Z,56.93
2023-11-18T09:26:13.850Z,56.92
2023-11-18T09:28:41.485Z,56.88
2023-11-18T09:31:15.986Z,56.92
2023-11-18T09:33:53.417Z,56.90
2023-11-18T09:36:21.714Z,56.84
2023-11-18T09:38:49.670Z,56.83
2023-11-18T09:41:19.781Z,56.80
2023-11-18T09:43:49.119Z,56.81
2023-11-18T09:46:23.244Z,56.73
2023-11-18T09:49:00.659Z,56.69
2023-11-18T09:51:33.776Z,56.63
2023-11-18T09:54:02.130Z,56.55
2023-11-18T09:56:58.322Z,56.51
2023-11-18T09:59:32.138Z,56.54
2023-11-18T10:01:59.833Z,56.50
2023-11-18T10:04:29.594Z,56.45
2023-11-18T10:06:57.805Z,56.37
2023-11-18T10:09:41.009Z,56.30
2023-11-18T10:12:13.804Z,56.23
2023-11-18T10:14:45.143Z,56.21
2023-11-18T10:17:15.725Z,56.25
2023-11-18T10:20:00.901Z,56.30
2023-11-18T10:22:30.618Z,56.31
2023-11-18T10:24:58.977Z,56.40
2023-11-18T10:27:27.676Z,56.42
2023-11-18T10:29:59.148Z,56.41
2023-11-18T10:32:29.488Z,56.45
2023-11-18T10:34:58.520Z,56.43
2023-11-18T10:37:32.801Z,56.44
2023-11-18T10:40:05.588Z,56.44
2023-11-18T10:42:34.397Z,56.42
2023-11-18T10:45:05.324Z,56.23
2023-11-18T10:47:39.422Z,56.14
2023-11-18T10:50:11.080Z,56.05
2023-11-18T10:52:42.015Z,55.86
2023-11-18T10:55:13.614Z,55.71
2023-11-18T10:57:43.933Z,55.66
2023-11-18T11:00:16.141Z,55.67
2023-11-18T11:02:43.572Z,55.69
2023-11-18T11:05:22.292Z,55.71
2023-11-18T11:07:50.430Z,55.64
2023-11-18T11:10:18.188Z,55.69
2023-11-18T11:12:54.980Z,55.76
2023-11-18T11:15:42.106Z,55.84
2023-11-18T11:18:28.850Z,55.91
2023-11-18T11:21:06.393Z,55.95
2023-11-18T11:23:51.004Z,55.81
2023-11-18T11:26:31.806Z,55.66
2023-11-18T11:29:29.901Z,55.50
2023-11-18T11:32:40.337Z,55.33
2023-11-18T11:35:18.153Z,55.35
2023-11-18T11:37:46.085Z,55.35
2023-11-18T11:40:22.856Z,55.45
2023-11-18T11:42:58.256Z,55.48
2023-11-18T11:45:29.846Z,55.53
2023-11-18T11:48:18.052Z,55.47
2023-11-18T11:50:55.736Z,55.41
2023-11-18T11:53:32.292Z,55.47
2023-11-18T11:56:07.268Z,55.29
2023-11-18T11:58:40.478Z,55.15
2023-11-18T12:01:39.766Z,54.88
2023-11-18T12:04:11.988Z,54.90
2023-11-18T12:06:45.880Z,55.00
2023-11-18T12:09:20.654Z,55.09
2023-11-18T12:11:50.167Z,55.31
2023-11-18T12:14:23.728Z,55.33
2023-11-18T12:17:10.103Z,55.24
2023-11-18T12:19:52.132Z,55.05
2023-11-18T12:22:27.827Z,55.10
2023-11-18T12:24:59.038Z,54.66
2023-11-18T12:27:41.841Z,54.65
2023-11-18T12:30:27.702Z,54.67
2023-11-18T12:33:02.862Z,54.64
2023-11-18T12:35:30.889Z,54.62
2023-11-18T12:38:41.546Z,54.35
2023-11-18T12:41:12.832Z,54.09
2023-11-18T12:44:03.838Z,54.29
2023-11-18T12:46:54.657Z,54.00
2023-11-18T12:49:26.139Z,54.06
2023-11-18T12:51:56.217Z,53.99
2023-11-18T12:54:28.707Z,53.85
2023-11-18T12:56:58.822Z,53.64
2023-11-18T12:59:25.953Z,53.58
2023-11-18T13:02:00.061Z,53.33
2023-11-18T13:04:28.746Z,53.43
2023-11-18T13:06:56.205Z,53.48
2023-11-18T13:09:27.627Z,53.54
2023-11-18T13:12:02.215Z,53.73
2023-11-18T13:14:37.463Z,53.67
2023-11-18T13:17:10.084Z,53.74
2023-11-18T13:19:37.302Z,53.93
2023-11-18T13:22:12.458Z,54.18
2023-11-18T13:24:41.585Z,54.21
2023-11-18T13:27:10.393Z,54.00
2023-11-18T13:29:40.890Z,54.07
2023-11-18T13:32:11.477Z,54.15
2023-11-18T13:34:40.867Z,54.24
2023-11-18T13:37:08.831Z,54.34
2023-11-18T13:39:35.901Z,54.25
2023-11-18T13:42:24.147Z,54.30
2023-11-18T13:44:54.090Z,54.37
2023-11-18T13:47:22.114Z,54.04
2023-11-18T13:49:53.608Z,54.00
2023-11-18T13:52:22.211Z,54.22
2023-11-18T13:54:51.017Z,54.51
2023-11-18T13:57:17.967Z,54.43
2023-11-18T13:59:45.942Z,54.54
2023-11-18T14:02:13.462Z,54.79
2023-11-18T14:04:41.048Z,54.89
2023-11-18T14:07:10.633Z,55.04
2023-11-18T14:09:41.235Z,54.95
2023-11-18T14:12:09.863Z,54.93
2023-11-18T14:14:38.451Z,55.07
2023-11-18T14:17:07.446Z,54.94
2023-11-18T14:19:36.313Z,55.04
2023-11-18T14:22:08.161Z,54.92
2023-11-18T14:24:35.639Z,54.98
2023-11-18T14:27:03.088Z,54.79
2023-11-18T14:29:30.605Z,54.94
2023-11-18T14:31:58.231Z,54.95
2023-11-18T14:34:25.700Z,54.96
2023-11-18T14:36:52.826Z,54.86
2023-11-18T14:39:23.994Z,54.90
2023-11-18T14:41:51.901Z,54.95
2023-11-18T14:44:19.161Z,55.14
2023-11-18T14:46:47.505Z,55.21
2023-11-18T14:49:14.740Z,55.49
2023-11-18T14:51:41.803Z,55.67
2023-11-18T14:54:10.016Z,55.60
2023-11-18T14:56:37.027Z,55.83
2023-11-18T14:59:06.762Z,55.73
2023-11-18T15:01:34.290Z,55.91
2023-11-18T15:04:05.286Z,55.74
2023-11-18T15:06:32.431Z,55.71
2023-11-18T15:08:59.354Z,55.82
2023-11-18T15:11:26.339Z,56.07
2023-11-18T15:13:54.892Z,56.11
2023-11-18T15:16:22.556Z,56.01
2023-11-18T15:18:53.673Z,56.16
2023-11-18T15:21:20.911Z,56.33
2023-11-18T15:23:49.528Z,56.40
2023-11-18T15:26:16.907Z,56.71
2023-11-18T15:28:43.895Z,56.85
2023-11-18T15:31:11.012Z,56.93
2023-11-18T15:33:38.689Z,56.98
2023-11-18T15:36:08.691Z,57.13
2023-11-18T15:38:36.828Z,56.95
2023-11-18T15:41:04.304Z,57.12
2023-11-18T15:43:31.457Z,57.32
2023-11-18T15:45:59.685Z,57.34
2023-11-18T15:48:27.655Z,57.45
2023-11-18T15:50:58.550Z,57.50
2023-11-18T15:53:29.391Z,57.64
2023-11-18T15:55:56.535Z,57.60
2023-11-18T15:58:27.441Z,57.65
2023-11-18T16:00:54.979Z,57.54
2023-11-18T16:03:22.621Z,57.66
2023-11-18T16:05:50.730Z,57.48
2023-11-18T16:08:17.942Z,57.29
2023-11-18T16:10:46.260Z,57.38
2023-11-18T16:13:14.664Z,57.21
2023-11-18T16:15:42.541Z,57.58
2023-11-18T16:18:13.081Z,57.58
2023-11-18T16:20:40.178Z,57.51
2023-11-18T16:23:07.453Z,57.74
2023-11-18T16:25:38.714Z,57.51
2023-11-18T16:28:09.188Z,57.52
2023-11-18T16:30:36.382Z,57.74
2023-11-18T16:33:05.077Z,57.75
2023-11-18T16:35:32.558Z,57.83
2023-11-18T16:38:01.756Z,57.79
2023-11-18T16:40:29.980Z,57.85
2023-11-18T16:42:57.746Z,57.89
2023-11-18T16:46:53.947Z,58.05
2023-11-18T16:49:23.036Z,57.91
2023-11-18T16:51:53.835Z,57.94
2023-11-18T16:54:33.356Z,58.11
2023-11-18T16:57:06.888Z,58.13
2023-11-18T16:59:34.136Z,58.05
2023-11-18T17:02:01.008Z,58.09
2023-11-18T17:04:28.628Z,58.17
2023-11-18T17:06:56.476Z,58.18
2023-11-18T17:09:23.706Z,58.17
2023-11-18T17:11:50.744Z,58.13
2023-11-18T17:14:17.713Z,58.06
2023-11-18T17:16:45.117Z,58.22
2023-11-18T17:19:12.938Z,58.19
2023-11-18T17:21:39.933Z,58.07
2023-11-18T17:24:09.040Z,58.20
2023-11-18T17:26:40.469Z,58.18
2023-11-18T17:29:08.158Z,58.11
2023-11-18T17:31:36.372Z,58.24
2023-11-18T17:34:03.835Z,58.27
2023-11-18T17:36:31.605Z,58.31
2023-11-18T17:38:59.090Z,58.26
2023-11-18T17:41:27.080Z,58.35
2023-11-18T17:43:54.758Z,58.61
2023-11-18T17:46:22.079Z,58.63
2023-11-18T17:48:49.403Z,58.58
2023-11-18T17:51:16.395Z,58.75
2023-11-18T17:53:43.628Z,58.93
2023-11-18T17:56:10.832Z,58.90
2023-11-18T17:58:39.440Z,58.90
2023-11-18T18:01:08.363Z,58.92
2023-11-18T18:03:35.819Z,59.04
2023-11-18T18:06:04.777Z,59.21
2023-11-18T18:08:35.617Z,59.30
2023-11-18T18:11:04.403Z,59.28
2023-11-18T18:13:32.614Z,59.26
2023-11-18T18:15:59.869Z,59.50
2023-11-18T18:18:27.084Z,59.36
2023-11-18T18:20:54.454Z,59.48
2023-11-18T18:23:22.004Z,59.55
2023-11-18T18:25:49.816Z,59.65
2023-11-18T18:28:17.873Z,59.58
2023-11-18T18:30:45.412Z,59.85
2023-11-18T18:33:13.151Z,59.77
2023-11-18T18:35:40.900Z,59.90
2023-11-18T18:38:09.292Z,59.94
2023-11-18T18:40:36.882Z,60.08
2023-11-18T18:43:04.883Z,60.11
2023-11-18T18:45:32.638Z,60.18
2023-11-18T18:48:00.526Z,60.14
2023-11-18T18:50:27.928Z,60.32
2023-11-18T18:52:54.954Z,60.29
2023-11-18T18:55:22.550Z,60.37
2023-11-18T18:57:49.696Z,60.43
2023-11-18T19:00:19.059Z,60.29
2023-11-18T19:02:47.673Z,60.40
2023-11-18T19:05:15.997Z,60.38
2023-11-18T19:07:43.610Z,60.49
2023-11-18T19:10:11.142Z,60.63
2023-11-18T19:12:38.478Z,60.70
2023-11-18T19:15:06.632Z,60.82
2023-11-18T19:17:36.172Z,60.96
2023-11-18T19:20:07.835Z,60.98
2023-11-18T19:22:34.901Z,60.96
2023-11-18T19:25:01.925Z,61.04
2023-11-18T19:27:28.759Z,61.13
2023-11-18T19:29:56.542Z,61.13
2023-11-18T19:32:24.271Z,61.16
2023-11-18T19:34:51.690Z,61.11
2023-11-18T19:37:18.621Z,61.34
2023-11-18T19:39:46.266Z,61.36
2023-11-18T19:42:13.733Z,61.37
2023-11-18T19:44:41.047Z,61.48
2023-11-18T19:47:08.205Z,61.37
2023-11-18T19:49:36.302Z,61.51
2023-11-18T19:52:06.916Z,61.45
2023-11-18T19:54:35.316Z,61.62
2023-11-18T19:57:03.213Z,61.61
2023-11-18T19:59:30.752Z,61.64
2023-11-18T20:02:00.388Z,61.74
2023-11-18T20:04:28.193Z,61.86
2023-11-18T20:06:55.178Z,61.94
2023-11-18T20:09:23.108Z,61.96
2023-11-18T20:11:52.570Z,62.06
2023-11-18T20:14:21.650Z,62.17
2023-11-18T20:16:50.688Z,61.97
2023-11-18T20:19:18.189Z,62.18
2023-11-18T20:21:46.691Z,62.13
2023-11-18T20:24:14.233Z,62.08
2023-11-18T20:26:42.900Z,62.12
2023-11-18T20:29:10.750Z,62.10
2023-11-18T20:31:41.353Z,62.11
2023-11-18T20:34:12.998Z,62.12
2023-11-18T20:36:41.551Z,62.27
2023-11-18T20:39:08.531Z,62.42
2023-11-18T20:41:36.108Z,62.22
2023-11-18T20:44:04.613Z,62.44
2023-11-18T20:46:32.486Z,62.45
2023-11-18T20:49:00.372Z,62.76
2023-11-18T20:51:27.804Z,62.81
2023-11-18T20:53:54.837Z,62.67
2023-11-18T20:56:23.923Z,62.89
2023-11-18T20:58:52.105Z,62.92
2023-11-18T21:01:19.841Z,62.74
2023-11-18T21:03:47.722Z,63.12
2023-11-18T21:06:21.356Z,62.97
2023-11-18T21:08:49.075Z,62.74
2023-11-18T21:11:16.836Z,62.46
2023-11-18T21:13:45.245Z,62.62
2023-11-18T21:16:14.416Z,62.71
2023-11-18T21:18:42.793Z,62.58
2023-11-18T21:21:12.789Z,62.59
2023-11-18T21:23:41.020Z,62.57
2023-11-18T21:26:08.154Z,62.53
2023-11-18T21:28:37.008Z,62.55
2023-11-18T21:31:04.704Z,62.55
2023-11-18T21:33:32.547Z,62.60
2023-11-18T21:36:00.058Z,62.66
2023-11-18T21:38:27.586Z,62.56
2023-11-18T21:40:55.695Z,62.55
2023-11-18T21:43:22.499Z,62.29
2023-11-18T21:45:49.636Z,62.40
2023-11-18T21:48:17.576Z,62.44
2023-11-18T21:50:44.574Z,62.40
2023-11-18T21:53:11.742Z,62.38
2023-11-18T21:55:38.921Z,62.48
2023-11-18T21:58:07.103Z,62.44
2023-11-18T22:00:34.286Z,62.53
2023-11-18T22:03:04.357Z,62.48
2023-11-18T22:05:31.752Z,62.64
2023-11-18T22:07:58.734Z,62.59
2023-11-18T22:10:26.902Z,62.60
2023-11-18T22:12:54.632Z,62.62
2023-11-18T22:15:23.502Z,62.59
2023-11-18T22:17:53.201Z,62.54
2023-11-18T22:20:25.863Z,62.50
2023-11-18T22:22:53.293Z,62.53
2023-11-18T22:25:20.950Z,62.49
2023-11-18T22:27:48.980Z,62.51
2023-11-18T22:30:17.545Z,62.62
2023-11-18T22:32:44.669Z,62.67
2023-11-18T22:35:11.964Z,62.74
2023-11-18T22:37:39.176Z,62.50
2023-11-18T22:40:11.906Z,62.48
2023-11-18T22:42:40.705Z,62.59
2023-11-18T22:45:17.417Z,62.54
2023-11-18T22:47:45.956Z,62.69
2023-11-18T22:50:16.567Z,62.63
2023-11-18T22:52:43.576Z,62.48
2023-11-18T22:57:42.494Z,62.38
2023-11-18T23:00:17.262Z,62.36
2023-11-18T23:02:44.545Z,62.09
2023-11-18T23:05:15.221Z,62.07
2023-11-18T23:07:45.668Z,62.09
2023-11-18T23:10:15.407Z,62.91
2023-11-18T23:12:42.354Z,62.24
2023-11-18T23:15:09.797Z,62.12
2023-11-18T23:17:36.731Z,62.18
2023-11-18T23:20:05.640Z,62.10
2023-11-18T23:22:33.014Z,62.05
2023-11-18T23:25:01.515Z,62.07
2023-11-18T23:27:29.388Z,61.95
2023-11-18T23:29:56.707Z,61.90
2023-11-18T23:32:23.688Z,61.85
2023-11-18T23:34:50.589Z,61.78
2023-11-18T23:37:17.762Z,61.80
2023-11-18T23:39:46.179Z,61.78
2023-11-18T23:42:13.082Z,61.81
2023-11-18T23:44:40.985Z,61.81
2023-11-18T23:47:08.133Z,61.78
2023-11-18T23:49:35.371Z,61.57
2023-11-18T23:52:02.262Z,61.52
2023-11-18T23:54:29.084Z,61.55
2023-11-18T23:56:56.220Z,61.54
2023-11-18T23:59:24.851Z,61.60
